sensor_id;sensor_type;location;lat;lon;timestamp;P1;durP1;ratioP1;P2;durP2;ratioP2
32611;SDS011;19030;49.478;8.986;2023-07-13T00:00:25;5.05;;;2.83;;
32611;SDS011;19030;49.478;8.986;2023-07-13T00:02:26;8.50;;;3.13;;
32611;SDS011;19030;49.478;8.986;2023-07-13T00:04:26;5.60;;;2.60;;
32611;SDS011;19030;49.478;8.986;2023-07-13T00:06:27;5.43;;;2.97;;
32611;SDS011;19030;49.478;8.986;2023-07-13T00:08:31;4.20;;;2.40;;
32611;SDS011;19030;49.478;8.986;2023-07-13T00:10:32;4.53;;;2.40;;
32611;SDS011;19030;49.478;8.986;2023-07-13T00:12:35;4.05;;;2.50;;
32611;SDS011;19030;49.478;8.986;2023-07-13T00:14:36;3.85;;;2.40;;
32611;SDS011;19030;49.478;8.986;2023-07-13T00:16:37;5.68;;;2.65;;
32611;SDS011;19030;49.478;8.986;2023-07-13T00:18:39;4.10;;;2.20;;
32611;SDS011;19030;49.478;8.986;2023-07-13T00:20:40;4.82;;;2.30;;
32611;SDS011;19030;49.478;8.986;2023-07-13T00:22:41;5.32;;;2.70;;
32611;SDS011;19030;49.478;8.986;2023-07-13T00:24:42;6.82;;;2.60;;
32611;SDS011;19030;49.478;8.986;2023-07-13T00:26:42;6.85;;;3.88;;
32611;SDS011;19030;49.478;8.986;2023-07-13T00:28:45;10.70;;;2.85;;
32611;SDS011;19030;49.478;8.986;2023-07-13T00:30:46;5.80;;;2.50;;
32611;SDS011;19030;49.478;8.986;2023-07-13T00:32:47;7.28;;;2.80;;
32611;SDS011;19030;49.478;8.986;2023-07-13T00:34:47;5.00;;;2.50;;
32611;SDS011;19030;49.478;8.986;2023-07-13T00:36:48;6.22;;;2.58;;
32611;SDS011;19030;49.478;8.986;2023-07-13T00:38:48;7.40;;;2.78;;
32611;SDS011;19030;49.478;8.986;2023-07-13T00:40:49;4.95;;;2.38;;
32611;SDS011;19030;49.478;8.986;2023-07-13T00:42:51;12.52;;;2.80;;
32611;SDS011;19030;49.478;8.986;2023-07-13T00:45:07;8.65;;;2.92;;
32611;SDS011;19030;49.478;8.986;2023-07-13T00:47:10;4.55;;;2.72;;
32611;SDS011;19030;49.478;8.986;2023-07-13T00:49:13;7.85;;;3.03;;
32611;SDS011;19030;49.478;8.986;2023-07-13T00:51:22;5.68;;;2.60;;
32611;SDS011;19030;49.478;8.986;2023-07-13T00:53:29;6.22;;;3.13;;
32611;SDS011;19030;49.478;8.986;2023-07-13T00:55:32;7.78;;;2.63;;
32611;SDS011;19030;49.478;8.986;2023-07-13T00:57:33;4.95;;;2.80;;
32611;SDS011;19030;49.478;8.986;2023-07-13T00:59:34;5.63;;;2.60;;
32611;SDS011;19030;49.478;8.986;2023-07-13T01:01:36;5.65;;;2.58;;
32611;SDS011;19030;49.478;8.986;2023-07-13T01:03:37;6.43;;;3.20;;
32611;SDS011;19030;49.478;8.986;2023-07-13T01:05:38;6.82;;;3.10;;
32611;SDS011;19030;49.478;8.986;2023-07-13T01:07:39;8.43;;;2.60;;
32611;SDS011;19030;49.478;8.986;2023-07-13T01:09:41;8.20;;;3.03;;
32611;SDS011;19030;49.478;8.986;2023-07-13T01:11:42;6.72;;;2.95;;
32611;SDS011;19030;49.478;8.986;2023-07-13T01:13:44;4.65;;;2.80;;
32611;SDS011;19030;49.478;8.986;2023-07-13T01:15:46;8.27;;;2.65;;
32611;SDS011;19030;49.478;8.986;2023-07-13T01:17:48;4.75;;;2.83;;
32611;SDS011;19030;49.478;8.986;2023-07-13T01:19:48;5.90;;;2.47;;
32611;SDS011;19030;49.478;8.986;2023-07-13T01:21:50;6.75;;;2.97;;
32611;SDS011;19030;49.478;8.986;2023-07-13T01:23:51;4.15;;;2.83;;
32611;SDS011;19030;49.478;8.986;2023-07-13T01:25:52;4.68;;;2.70;;
32611;SDS011;19030;49.478;8.986;2023-07-13T01:27:55;6.43;;;3.00;;
32611;SDS011;19030;49.478;8.986;2023-07-13T01:29:55;4.97;;;2.60;;
32611;SDS011;19030;49.478;8.986;2023-07-13T01:32:02;6.07;;;3.28;;
32611;SDS011;19030;49.478;8.986;2023-07-13T01:34:02;8.27;;;2.72;;
32611;SDS011;19030;49.478;8.986;2023-07-13T01:36:03;4.95;;;2.75;;
32611;SDS011;19030;49.478;8.986;2023-07-13T01:38:04;4.28;;;2.65;;
32611;SDS011;19030;49.478;8.986;2023-07-13T01:40:05;5.60;;;2.80;;
32611;SDS011;19030;49.478;8.986;2023-07-13T01:42:08;5.95;;;2.90;;
32611;SDS011;19030;49.478;8.986;2023-07-13T01:44:09;4.90;;;2.58;;
32611;SDS011;19030;49.478;8.986;2023-07-13T01:46:09;3.78;;;2.47;;
32611;SDS011;19030;49.478;8.986;2023-07-13T01:48:10;5.07;;;2.75;;
32611;SDS011;19030;49.478;8.986;2023-07-13T01:50:11;5.75;;;2.75;;
32611;SDS011;19030;49.478;8.986;2023-07-13T01:52:12;4.88;;;2.90;;
32611;SDS011;19030;49.478;8.986;2023-07-13T01:54:12;8.80;;;2.95;;
32611;SDS011;19030;49.478;8.986;2023-07-13T01:56:13;4.78;;;2.67;;
32611;SDS011;19030;49.478;8.986;2023-07-13T01:58:13;8.65;;;2.85;;
32611;SDS011;19030;49.478;8.986;2023-07-13T02:00:14;8.00;;;2.58;;
32611;SDS011;19030;49.478;8.986;2023-07-13T02:02:20;5.32;;;2.83;;
32611;SDS011;19030;49.478;8.986;2023-07-13T02:04:21;5.38;;;2.70;;
32611;SDS011;19030;49.478;8.986;2023-07-13T02:06:21;7.38;;;2.80;;
32611;SDS011;19030;49.478;8.986;2023-07-13T02:08:22;6.10;;;2.88;;
32611;SDS011;19030;49.478;8.986;2023-07-13T02:10:23;8.40;;;3.00;;
32611;SDS011;19030;49.478;8.986;2023-07-13T02:12:23;7.20;;;2.67;;
32611;SDS011;19030;49.478;8.986;2023-07-13T02:14:24;4.57;;;2.60;;
32611;SDS011;19030;49.478;8.986;2023-07-13T02:16:24;6.95;;;2.85;;
32611;SDS011;19030;49.478;8.986;2023-07-13T02:18:25;5.43;;;2.80;;
32611;SDS011;19030;49.478;8.986;2023-07-13T02:20:25;6.38;;;2.70;;
32611;SDS011;19030;49.478;8.986;2023-07-13T02:22:26;5.32;;;3.00;;
32611;SDS011;19030;49.478;8.986;2023-07-13T02:24:27;5.60;;;3.15;;
32611;SDS011;19030;49.478;8.986;2023-07-13T02:26:27;7.22;;;2.95;;
32611;SDS011;19030;49.478;8.986;2023-07-13T02:28:28;6.57;;;2.90;;
32611;SDS011;19030;49.478;8.986;2023-07-13T02:30:29;6.72;;;2.92;;
32611;SDS011;19030;49.478;8.986;2023-07-13T02:32:31;5.93;;;2.63;;
32611;SDS011;19030;49.478;8.986;2023-07-13T02:34:31;5.80;;;2.95;;
32611;SDS011;19030;49.478;8.986;2023-07-13T02:36:32;8.43;;;4.45;;
32611;SDS011;19030;49.478;8.986;2023-07-13T02:38:33;8.55;;;3.17;;
32611;SDS011;19030;49.478;8.986;2023-07-13T02:40:36;6.70;;;3.33;;
32611;SDS011;19030;49.478;8.986;2023-07-13T02:42:36;6.05;;;2.97;;
32611;SDS011;19030;49.478;8.986;2023-07-13T02:44:37;5.70;;;3.25;;
32611;SDS011;19030;49.478;8.986;2023-07-13T02:46:38;8.35;;;3.33;;
32611;SDS011;19030;49.478;8.986;2023-07-13T02:48:39;6.45;;;3.30;;
32611;SDS011;19030;49.478;8.986;2023-07-13T02:50:39;5.40;;;2.92;;
32611;SDS011;19030;49.478;8.986;2023-07-13T02:52:40;6.63;;;3.00;;
32611;SDS011;19030;49.478;8.986;2023-07-13T02:54:41;6.47;;;2.88;;
32611;SDS011;19030;49.478;8.986;2023-07-13T02:56:41;5.47;;;2.58;;
32611;SDS011;19030;49.478;8.986;2023-07-13T02:58:43;5.55;;;2.50;;
32611;SDS011;19030;49.478;8.986;2023-07-13T03:00:44;6.15;;;3.13;;
32611;SDS011;19030;49.478;8.986;2023-07-13T03:02:46;9.20;;;3.05;;
32611;SDS011;19030;49.478;8.986;2023-07-13T03:04:46;6.32;;;3.30;;
32611;SDS011;19030;49.478;8.986;2023-07-13T03:06:47;6.22;;;2.60;;
32611;SDS011;19030;49.478;8.986;2023-07-13T03:08:49;5.68;;;2.80;;
32611;SDS011;19030;49.478;8.986;2023-07-13T03:10:58;5.57;;;2.95;;
32611;SDS011;19030;49.478;8.986;2023-07-13T03:13:01;6.30;;;3.20;;
32611;SDS011;19030;49.478;8.986;2023-07-13T03:15:02;7.13;;;2.95;;
32611;SDS011;19030;49.478;8.986;2023-07-13T03:17:04;4.18;;;2.42;;
32611;SDS011;19030;49.478;8.986;2023-07-13T03:19:07;5.90;;;3.08;;
32611;SDS011;19030;49.478;8.986;2023-07-13T03:21:09;7.40;;;2.92;;
32611;SDS011;19030;49.478;8.986;2023-07-13T03:23:10;8.63;;;3.42;;
32611;SDS011;19030;49.478;8.986;2023-07-13T03:25:11;6.78;;;2.92;;
32611;SDS011;19030;49.478;8.986;2023-07-13T03:27:12;5.57;;;2.83;;
32611;SDS011;19030;49.478;8.986;2023-07-13T03:29:16;8.75;;;3.13;;
32611;SDS011;19030;49.478;8.986;2023-07-13T03:31:21;5.90;;;3.22;;
32611;SDS011;19030;49.478;8.986;2023-07-13T03:33:25;7.35;;;3.10;;
32611;SDS011;19030;49.478;8.986;2023-07-13T03:35:25;6.40;;;3.10;;
32611;SDS011;19030;49.478;8.986;2023-07-13T03:37:26;7.03;;;2.95;;
32611;SDS011;19030;49.478;8.986;2023-07-13T03:39:27;7.20;;;3.30;;
32611;SDS011;19030;49.478;8.986;2023-07-13T03:41:31;5.55;;;2.92;;
32611;SDS011;19030;49.478;8.986;2023-07-13T03:43:32;6.60;;;3.05;;
32611;SDS011;19030;49.478;8.986;2023-07-13T03:45:33;6.43;;;2.97;;
32611;SDS011;19030;49.478;8.986;2023-07-13T03:47:33;6.68;;;2.95;;
32611;SDS011;19030;49.478;8.986;2023-07-13T03:49:37;5.75;;;3.15;;
32611;SDS011;19030;49.478;8.986;2023-07-13T03:51:38;5.82;;;3.28;;
32611;SDS011;19030;49.478;8.986;2023-07-13T03:53:39;6.72;;;3.33;;
32611;SDS011;19030;49.478;8.986;2023-07-13T03:55:41;6.22;;;3.22;;
32611;SDS011;19030;49.478;8.986;2023-07-13T03:57:42;6.78;;;3.10;;
32611;SDS011;19030;49.478;8.986;2023-07-13T03:59:43;7.75;;;3.00;;
32611;SDS011;19030;49.478;8.986;2023-07-13T04:01:44;5.88;;;3.30;;
32611;SDS011;19030;49.478;8.986;2023-07-13T04:03:46;8.40;;;3.33;;
32611;SDS011;19030;49.478;8.986;2023-07-13T04:05:47;6.43;;;2.92;;
32611;SDS011;19030;49.478;8.986;2023-07-13T04:07:48;6.32;;;3.13;;
32611;SDS011;19030;49.478;8.986;2023-07-13T04:09:48;5.30;;;3.13;;
32611;SDS011;19030;49.478;8.986;2023-07-13T04:11:49;6.30;;;2.80;;
32611;SDS011;19030;49.478;8.986;2023-07-13T04:13:50;6.63;;;3.10;;
32611;SDS011;19030;49.478;8.986;2023-07-13T04:15:51;9.13;;;4.05;;
32611;SDS011;19030;49.478;8.986;2023-07-13T04:17:52;5.97;;;2.90;;
32611;SDS011;19030;49.478;8.986;2023-07-13T04:19:53;5.75;;;2.97;;
32611;SDS011;19030;49.478;8.986;2023-07-13T04:21:54;7.82;;;3.40;;
32611;SDS011;19030;49.478;8.986;2023-07-13T04:23:54;5.68;;;3.13;;
32611;SDS011;19030;49.478;8.986;2023-07-13T04:25:55;6.05;;;2.90;;
32611;SDS011;19030;49.478;8.986;2023-07-13T04:27:56;7.40;;;3.15;;
32611;SDS011;19030;49.478;8.986;2023-07-13T04:29:56;6.97;;;3.47;;
32611;SDS011;19030;49.478;8.986;2023-07-13T04:31:57;8.13;;;3.28;;
32611;SDS011;19030;49.478;8.986;2023-07-13T04:33:58;7.50;;;3.13;;
32611;SDS011;19030;49.478;8.986;2023-07-13T04:35:58;7.53;;;3.10;;
32611;SDS011;19030;49.478;8.986;2023-07-13T04:37:59;6.18;;;3.28;;
32611;SDS011;19030;49.478;8.986;2023-07-13T04:39:59;6.43;;;3.25;;
32611;SDS011;19030;49.478;8.986;2023-07-13T04:42:00;5.20;;;2.90;;
32611;SDS011;19030;49.478;8.986;2023-07-13T04:44:00;6.22;;;3.17;;
32611;SDS011;19030;49.478;8.986;2023-07-13T04:46:03;6.82;;;3.22;;
32611;SDS011;19030;49.478;8.986;2023-07-13T04:48:05;5.50;;;3.03;;
32611;SDS011;19030;49.478;8.986;2023-07-13T04:50:07;7.22;;;3.20;;
32611;SDS011;19030;49.478;8.986;2023-07-13T04:52:09;7.53;;;3.20;;
32611;SDS011;19030;49.478;8.986;2023-07-13T04:54:09;7.18;;;3.33;;
32611;SDS011;19030;49.478;8.986;2023-07-13T04:56:10;6.60;;;3.40;;
32611;SDS011;19030;49.478;8.986;2023-07-13T04:58:10;7.85;;;3.20;;
32611;SDS011;19030;49.478;8.986;2023-07-13T05:00:11;6.57;;;3.60;;
32611;SDS011;19030;49.478;8.986;2023-07-13T05:02:12;8.25;;;3.22;;
32611;SDS011;19030;49.478;8.986;2023-07-13T05:04:13;6.65;;;3.15;;
32611;SDS011;19030;49.478;8.986;2023-07-13T05:06:13;8.45;;;3.30;;
32611;SDS011;19030;49.478;8.986;2023-07-13T05:08:14;5.05;;;3.05;;
32611;SDS011;19030;49.478;8.986;2023-07-13T05:10:15;5.65;;;3.13;;
32611;SDS011;19030;49.478;8.986;2023-07-13T05:12:15;4.80;;;2.90;;
32611;SDS011;19030;49.478;8.986;2023-07-13T05:14:16;6.78;;;3.60;;
32611;SDS011;19030;49.478;8.986;2023-07-13T05:16:16;7.68;;;3.30;;
32611;SDS011;19030;49.478;8.986;2023-07-13T05:18:17;8.70;;;3.40;;
32611;SDS011;19030;49.478;8.986;2023-07-13T05:20:18;8.57;;;3.03;;
32611;SDS011;19030;49.478;8.986;2023-07-13T05:22:19;7.68;;;3.10;;
32611;SDS011;19030;49.478;8.986;2023-07-13T05:24:19;5.80;;;3.55;;
32611;SDS011;19030;49.478;8.986;2023-07-13T05:26:20;4.80;;;3.10;;
32611;SDS011;19030;49.478;8.986;2023-07-13T05:28:21;6.78;;;3.53;;
32611;SDS011;19030;49.478;8.986;2023-07-13T05:30:22;6.18;;;3.20;;
32611;SDS011;19030;49.478;8.986;2023-07-13T05:32:22;6.43;;;3.10;;
32611;SDS011;19030;49.478;8.986;2023-07-13T05:34:23;7.07;;;3.10;;
32611;SDS011;19030;49.478;8.986;2023-07-13T05:36:25;7.45;;;3.08;;
32611;SDS011;19030;49.478;8.986;2023-07-13T05:38:25;6.68;;;3.50;;
32611;SDS011;19030;49.478;8.986;2023-07-13T05:40:26;6.30;;;3.20;;
32611;SDS011;19030;49.478;8.986;2023-07-13T05:42:27;4.88;;;3.20;;
32611;SDS011;19030;49.478;8.986;2023-07-13T05:44:27;9.48;;;3.22;;
32611;SDS011;19030;49.478;8.986;2023-07-13T05:46:28;7.97;;;3.28;;
32611;SDS011;19030;49.478;8.986;2023-07-13T05:48:28;5.03;;;3.30;;
32611;SDS011;19030;49.478;8.986;2023-07-13T05:50:29;5.47;;;2.80;;
32611;SDS011;19030;49.478;8.986;2023-07-13T05:52:29;7.90;;;3.45;;
32611;SDS011;19030;49.478;8.986;2023-07-13T05:54:30;7.00;;;3.00;;
32611;SDS011;19030;49.478;8.986;2023-07-13T05:56:31;5.70;;;3.05;;
32611;SDS011;19030;49.478;8.986;2023-07-13T05:58:31;7.72;;;3.20;;
32611;SDS011;19030;49.478;8.986;2023-07-13T06:00:32;5.70;;;3.10;;
32611;SDS011;19030;49.478;8.986;2023-07-13T06:02:33;6.18;;;3.05;;
32611;SDS011;19030;49.478;8.986;2023-07-13T06:04:34;5.93;;;3.00;;
32611;SDS011;19030;49.478;8.986;2023-07-13T06:06:34;5.97;;;2.97;;
32611;SDS011;19030;49.478;8.986;2023-07-13T06:08:35;6.60;;;3.17;;
32611;SDS011;19030;49.478;8.986;2023-07-13T06:10:36;5.70;;;2.90;;
32611;SDS011;19030;49.478;8.986;2023-07-13T06:12:37;5.25;;;2.90;;
32611;SDS011;19030;49.478;8.986;2023-07-13T06:14:38;4.03;;;2.83;;
32611;SDS011;19030;49.478;8.986;2023-07-13T06:16:39;6.22;;;3.08;;
32611;SDS011;19030;49.478;8.986;2023-07-13T06:18:41;4.88;;;2.72;;
32611;SDS011;19030;49.478;8.986;2023-07-13T06:20:43;6.57;;;3.10;;
32611;SDS011;19030;49.478;8.986;2023-07-13T06:22:43;5.95;;;3.00;;
32611;SDS011;19030;49.478;8.986;2023-07-13T06:24:44;6.50;;;2.60;;
32611;SDS011;19030;49.478;8.986;2023-07-13T06:26:44;6.22;;;3.13;;
32611;SDS011;19030;49.478;8.986;2023-07-13T06:28:45;8.20;;;3.45;;
32611;SDS011;19030;49.478;8.986;2023-07-13T06:30:45;5.72;;;2.72;;
32611;SDS011;19030;49.478;8.986;2023-07-13T06:32:46;4.38;;;2.90;;
32611;SDS011;19030;49.478;8.986;2023-07-13T06:34:46;7.10;;;3.30;;
32611;SDS011;19030;49.478;8.986;2023-07-13T06:36:47;3.88;;;2.80;;
32611;SDS011;19030;49.478;8.986;2023-07-13T06:38:48;6.65;;;3.30;;
32611;SDS011;19030;49.478;8.986;2023-07-13T06:40:48;5.00;;;3.13;;
32611;SDS011;19030;49.478;8.986;2023-07-13T06:42:49;6.03;;;3.45;;
32611;SDS011;19030;49.478;8.986;2023-07-13T06:44:49;7.43;;;3.13;;
32611;SDS011;19030;49.478;8.986;2023-07-13T06:46:50;5.97;;;3.20;;
32611;SDS011;19030;49.478;8.986;2023-07-13T06:48:51;6.05;;;3.30;;
32611;SDS011;19030;49.478;8.986;2023-07-13T06:50:51;5.07;;;3.22;;
32611;SDS011;19030;49.478;8.986;2023-07-13T06:52:53;6.78;;;3.58;;
32611;SDS011;19030;49.478;8.986;2023-07-13T06:54:53;8.38;;;3.40;;
32611;SDS011;19030;49.478;8.986;2023-07-13T06:56:54;7.07;;;3.20;;
32611;SDS011;19030;49.478;8.986;2023-07-13T06:58:54;6.47;;;3.33;;
32611;SDS011;19030;49.478;8.986;2023-07-13T07:00:55;5.15;;;2.97;;
32611;SDS011;19030;49.478;8.986;2023-07-13T07:02:55;6.22;;;2.90;;
32611;SDS011;19030;49.478;8.986;2023-07-13T07:04:56;5.70;;;3.10;;
32611;SDS011;19030;49.478;8.986;2023-07-13T07:06:57;7.47;;;3.30;;
32611;SDS011;19030;49.478;8.986;2023-07-13T07:08:58;6.32;;;3.40;;
32611;SDS011;19030;49.478;8.986;2023-07-13T07:10:58;4.90;;;2.88;;
32611;SDS011;19030;49.478;8.986;2023-07-13T07:12:59;6.65;;;2.60;;
32611;SDS011;19030;49.478;8.986;2023-07-13T07:14:59;5.00;;;2.70;;
32611;SDS011;19030;49.478;8.986;2023-07-13T07:17:00;5.15;;;2.78;;
32611;SDS011;19030;49.478;8.986;2023-07-13T07:19:01;4.60;;;2.88;;
32611;SDS011;19030;49.478;8.986;2023-07-13T07:21:02;5.13;;;2.60;;
32611;SDS011;19030;49.478;8.986;2023-07-13T07:23:02;4.70;;;2.60;;
32611;SDS011;19030;49.478;8.986;2023-07-13T07:25:03;8.07;;;2.75;;
32611;SDS011;19030;49.478;8.986;2023-07-13T07:27:04;6.38;;;2.90;;
32611;SDS011;19030;49.478;8.986;2023-07-13T07:29:04;6.43;;;2.72;;
32611;SDS011;19030;49.478;8.986;2023-07-13T07:31:05;7.15;;;2.80;;
32611;SDS011;19030;49.478;8.986;2023-07-13T07:33:06;7.25;;;2.90;;
32611;SDS011;19030;49.478;8.986;2023-07-13T07:35:06;6.00;;;2.90;;
32611;SDS011;19030;49.478;8.986;2023-07-13T07:37:09;8.05;;;3.22;;
32611;SDS011;19030;49.478;8.986;2023-07-13T07:39:12;5.55;;;2.72;;
32611;SDS011;19030;49.478;8.986;2023-07-13T07:41:13;7.55;;;2.80;;
32611;SDS011;19030;49.478;8.986;2023-07-13T07:43:13;5.40;;;2.40;;
32611;SDS011;19030;49.478;8.986;2023-07-13T07:45:14;4.35;;;2.40;;
32611;SDS011;19030;49.478;8.986;2023-07-13T07:47:15;5.45;;;2.70;;
32611;SDS011;19030;49.478;8.986;2023-07-13T07:49:15;7.80;;;3.17;;
32611;SDS011;19030;49.478;8.986;2023-07-13T07:51:16;5.43;;;2.80;;
32611;SDS011;19030;49.478;8.986;2023-07-13T07:53:17;5.55;;;2.50;;
32611;SDS011;19030;49.478;8.986;2023-07-13T07:55:17;4.60;;;2.63;;
32611;SDS011;19030;49.478;8.986;2023-07-13T07:57:18;5.18;;;2.47;;
32611;SDS011;19030;49.478;8.986;2023-07-13T07:59:18;4.38;;;2.50;;
32611;SDS011;19030;49.478;8.986;2023-07-13T08:01:19;7.22;;;2.97;;
32611;SDS011;19030;49.478;8.986;2023-07-13T08:03:20;5.60;;;2.47;;
32611;SDS011;19030;49.478;8.986;2023-07-13T08:05:20;3.45;;;2.42;;
32611;SDS011;19030;49.478;8.986;2023-07-13T08:07:21;6.03;;;2.67;;
32611;SDS011;19030;49.478;8.986;2023-07-13T08:09:21;5.28;;;2.70;;
32611;SDS011;19030;49.478;8.986;2023-07-13T08:11:22;7.03;;;3.00;;
32611;SDS011;19030;49.478;8.986;2023-07-13T08:13:23;6.20;;;2.78;;
32611;SDS011;19030;49.478;8.986;2023-07-13T08:15:23;5.22;;;2.90;;
32611;SDS011;19030;49.478;8.986;2023-07-13T08:17:24;7.00;;;3.03;;
32611;SDS011;19030;49.478;8.986;2023-07-13T08:19:25;6.05;;;2.60;;
32611;SDS011;19030;49.478;8.986;2023-07-13T08:21:25;9.57;;;2.53;;
32611;SDS011;19030;49.478;8.986;2023-07-13T08:23:26;6.35;;;3.20;;
32611;SDS011;19030;49.478;8.986;2023-07-13T08:25:26;6.00;;;2.80;;
32611;SDS011;19030;49.478;8.986;2023-07-13T08:27:27;6.45;;;2.65;;
32611;SDS011;19030;49.478;8.986;2023-07-13T08:29:28;6.03;;;2.85;;
32611;SDS011;19030;49.478;8.986;2023-07-13T08:31:31;4.50;;;2.35;;
32611;SDS011;19030;49.478;8.986;2023-07-13T08:33:33;8.48;;;2.75;;
32611;SDS011;19030;49.478;8.986;2023-07-13T08:35:35;7.20;;;2.60;;
32611;SDS011;19030;49.478;8.986;2023-07-13T08:37:35;5.32;;;2.50;;
32611;SDS011;19030;49.478;8.986;2023-07-13T08:39:36;5.10;;;2.65;;
32611;SDS011;19030;49.478;8.986;2023-07-13T08:41:37;4.95;;;2.50;;
32611;SDS011;19030;49.478;8.986;2023-07-13T08:43:37;3.70;;;2.45;;
32611;SDS011;19030;49.478;8.986;2023-07-13T08:45:43;4.43;;;2.60;;
32611;SDS011;19030;49.478;8.986;2023-07-13T08:48:32;6.70;;;2.60;;
32611;SDS011;19030;49.478;8.986;2023-07-13T08:50:19;5.85;;;2.95;;
32611;SDS011;19030;49.478;8.986;2023-07-13T08:52:35;7.68;;;3.13;;
32611;SDS011;19030;49.478;8.986;2023-07-13T08:54:40;5.63;;;2.65;;
32611;SDS011;19030;49.478;8.986;2023-07-13T08:56:44;5.50;;;2.57;;
32611;SDS011;19030;49.478;8.986;2023-07-13T08:58:48;4.60;;;2.38;;
32611;SDS011;19030;49.478;8.986;2023-07-13T09:03:23;5.05;;;2.30;;
32611;SDS011;19030;49.478;8.986;2023-07-13T09:05:30;6.50;;;2.67;;
32611;SDS011;19030;49.478;8.986;2023-07-13T09:07:49;4.82;;;2.50;;
32611;SDS011;19030;49.478;8.986;2023-07-13T09:10:16;5.07;;;2.88;;
32611;SDS011;19030;49.478;8.986;2023-07-13T09:12:30;8.65;;;3.17;;
32611;SDS011;19030;49.478;8.986;2023-07-13T09:14:48;7.93;;;2.70;;
32611;SDS011;19030;49.478;8.986;2023-07-13T09:16:52;3.80;;;2.40;;
32611;SDS011;19030;49.478;8.986;2023-07-13T09:18:55;6.22;;;2.50;;
32611;SDS011;19030;49.478;8.986;2023-07-13T09:21:12;7.20;;;2.50;;
32611;SDS011;19030;49.478;8.986;2023-07-13T09:23:16;4.00;;;2.22;;
32611;SDS011;19030;49.478;8.986;2023-07-13T09:25:30;5.57;;;2.40;;
32611;SDS011;19030;49.478;8.986;2023-07-13T09:27:36;5.25;;;2.53;;
32611;SDS011;19030;49.478;8.986;2023-07-13T09:29:41;6.30;;;2.55;;
32611;SDS011;19030;49.478;8.986;2023-07-13T09:31:46;9.38;;;2.80;;
32611;SDS011;19030;49.478;8.986;2023-07-13T09:33:52;8.93;;;2.63;;
32611;SDS011;19030;49.478;8.986;2023-07-13T09:35:52;4.60;;;2.30;;
32611;SDS011;19030;49.478;8.986;2023-07-13T09:37:56;6.43;;;2.40;;
32611;SDS011;19030;49.478;8.986;2023-07-13T09:39:59;27.83;;;3.27;;
32611;SDS011;19030;49.478;8.986;2023-07-13T09:42:03;7.63;;;2.35;;
32611;SDS011;19030;49.478;8.986;2023-07-13T09:44:14;6.68;;;2.58;;
32611;SDS011;19030;49.478;8.986;2023-07-13T09:46:22;10.30;;;3.15;;
32611;SDS011;19030;49.478;8.986;2023-07-13T09:48:22;5.28;;;2.38;;
32611;SDS011;19030;49.478;8.986;2023-07-13T09:50:24;5.18;;;2.30;;
32611;SDS011;19030;49.478;8.986;2023-07-13T09:52:25;7.40;;;2.70;;
32611;SDS011;19030;49.478;8.986;2023-07-13T09:54:32;4.38;;;2.10;;
32611;SDS011;19030;49.478;8.986;2023-07-13T09:56:35;7.72;;;2.55;;
32611;SDS011;19030;49.478;8.986;2023-07-13T09:58:36;8.68;;;2.65;;
32611;SDS011;19030;49.478;8.986;2023-07-13T10:00:36;7.28;;;2.78;;
32611;SDS011;19030;49.478;8.986;2023-07-13T10:02:38;8.98;;;3.42;;
32611;SDS011;19030;49.478;8.986;2023-07-13T10:04:39;6.75;;;2.55;;
32611;SDS011;19030;49.478;8.986;2023-07-13T10:06:41;9.75;;;2.85;;
32611;SDS011;19030;49.478;8.986;2023-07-13T10:08:44;5.75;;;2.63;;
32611;SDS011;19030;49.478;8.986;2023-07-13T10:10:46;7.63;;;2.72;;
32611;SDS011;19030;49.478;8.986;2023-07-13T10:12:53;7.15;;;2.63;;
32611;SDS011;19030;49.478;8.986;2023-07-13T10:14:55;5.85;;;2.35;;
32611;SDS011;19030;49.478;8.986;2023-07-13T10:17:00;7.05;;;2.45;;
32611;SDS011;19030;49.478;8.986;2023-07-13T10:19:10;5.78;;;2.40;;
32611;SDS011;19030;49.478;8.986;2023-07-13T10:21:20;7.28;;;2.40;;
32611;SDS011;19030;49.478;8.986;2023-07-13T10:25:25;6.22;;;2.60;;
32611;SDS011;19030;49.478;8.986;2023-07-13T10:27:30;5.95;;;2.60;;
32611;SDS011;19030;49.478;8.986;2023-07-13T10:29:35;7.88;;;3.00;;
32611;SDS011;19030;49.478;8.986;2023-07-13T10:31:38;9.57;;;2.88;;
32611;SDS011;19030;49.478;8.986;2023-07-13T10:33:40;13.23;;;2.47;;
32611;SDS011;19030;49.478;8.986;2023-07-13T10:35:41;6.30;;;2.70;;
32611;SDS011;19030;49.478;8.986;2023-07-13T10:38:01;10.13;;;2.72;;
32611;SDS011;19030;49.478;8.986;2023-07-13T10:40:11;5.88;;;2.67;;
32611;SDS011;19030;49.478;8.986;2023-07-13T10:42:18;5.85;;;2.80;;
32611;SDS011;19030;49.478;8.986;2023-07-13T10:44:38;5.78;;;2.42;;
32611;SDS011;19030;49.478;8.986;2023-07-13T10:46:39;6.63;;;2.47;;
32611;SDS011;19030;49.478;8.986;2023-07-13T10:48:41;5.25;;;2.42;;
32611;SDS011;19030;49.478;8.986;2023-07-13T10:50:45;10.07;;;2.90;;
32611;SDS011;19030;49.478;8.986;2023-07-13T10:52:48;7.97;;;2.70;;
32611;SDS011;19030;49.478;8.986;2023-07-13T10:54:50;8.75;;;2.50;;
32611;SDS011;19030;49.478;8.986;2023-07-13T10:59:25;7.45;;;2.85;;
32611;SDS011;19030;49.478;8.986;2023-07-13T11:01:27;9.02;;;3.05;;
32611;SDS011;19030;49.478;8.986;2023-07-13T11:05:44;8.27;;;3.03;;
32611;SDS011;19030;49.478;8.986;2023-07-13T11:07:52;7.38;;;2.63;;
32611;SDS011;19030;49.478;8.986;2023-07-13T11:09:56;5.00;;;2.33;;
32611;SDS011;19030;49.478;8.986;2023-07-13T11:12:07;4.40;;;2.63;;
32611;SDS011;19030;49.478;8.986;2023-07-13T11:16:38;7.32;;;2.60;;
32611;SDS011;19030;49.478;8.986;2023-07-13T11:18:45;4.68;;;2.38;;
32611;SDS011;19030;49.478;8.986;2023-07-13T11:20:50;6.25;;;2.67;;
32611;SDS011;19030;49.478;8.986;2023-07-13T11:23:08;6.60;;;2.60;;
32611;SDS011;19030;49.478;8.986;2023-07-13T11:27:34;5.70;;;2.40;;
32611;SDS011;19030;49.478;8.986;2023-07-13T11:29:38;6.45;;;2.40;;
32611;SDS011;19030;49.478;8.986;2023-07-13T11:31:39;5.20;;;2.63;;
32611;SDS011;19030;49.478;8.986;2023-07-13T11:35:45;6.40;;;2.65;;
32611;SDS011;19030;49.478;8.986;2023-07-13T11:38:00;7.38;;;2.65;;
32611;SDS011;19030;49.478;8.986;2023-07-13T11:40:02;6.82;;;3.03;;
32611;SDS011;19030;49.478;8.986;2023-07-13T11:42:03;8.15;;;2.40;;
32611;SDS011;19030;49.478;8.986;2023-07-13T11:44:24;8.07;;;2.63;;
32611;SDS011;19030;49.478;8.986;2023-07-13T11:46:27;7.15;;;2.65;;
32611;SDS011;19030;49.478;8.986;2023-07-13T11:48:29;4.90;;;2.40;;
32611;SDS011;19030;49.478;8.986;2023-07-13T11:50:31;4.20;;;2.30;;
32611;SDS011;19030;49.478;8.986;2023-07-13T11:52:33;6.97;;;3.60;;
32611;SDS011;19030;49.478;8.986;2023-07-13T11:54:43;6.50;;;3.55;;
32611;SDS011;19030;49.478;8.986;2023-07-13T11:56:55;6.82;;;3.65;;
32611;SDS011;19030;49.478;8.986;2023-07-13T11:59:04;6.65;;;3.78;;
32611;SDS011;19030;49.478;8.986;2023-07-13T12:01:10;7.18;;;3.83;;
32611;SDS011;19030;49.478;8.986;2023-07-13T12:03:22;8.50;;;4.57;;
32611;SDS011;19030;49.478;8.986;2023-07-13T12:05:24;8.35;;;4.43;;
32611;SDS011;19030;49.478;8.986;2023-07-13T12:07:25;6.53;;;3.60;;
32611;SDS011;19030;49.478;8.986;2023-07-13T12:09:29;7.75;;;4.45;;
32611;SDS011;19030;49.478;8.986;2023-07-13T12:11:30;8.90;;;4.18;;
32611;SDS011;19030;49.478;8.986;2023-07-13T12:13:35;6.80;;;4.00;;
32611;SDS011;19030;49.478;8.986;2023-07-13T12:17:43;9.20;;;4.47;;
32611;SDS011;19030;49.478;8.986;2023-07-13T12:19:44;6.97;;;4.70;;
32611;SDS011;19030;49.478;8.986;2023-07-13T12:21:46;7.03;;;5.75;;
32611;SDS011;19030;49.478;8.986;2023-07-13T12:23:48;8.05;;;6.10;;
32611;SDS011;19030;49.478;8.986;2023-07-13T12:25:50;7.10;;;5.45;;
32611;SDS011;19030;49.478;8.986;2023-07-13T12:27:51;8.55;;;6.10;;
32611;SDS011;19030;49.478;8.986;2023-07-13T12:29:53;7.72;;;5.22;;
32611;SDS011;19030;49.478;8.986;2023-07-13T12:31:59;7.97;;;6.25;;
32611;SDS011;19030;49.478;8.986;2023-07-13T12:34:01;9.20;;;5.90;;
32611;SDS011;19030;49.478;8.986;2023-07-13T12:36:11;8.98;;;5.93;;